sensor_id;sensor_type;location;lat;lon;timestamp;P1;durP1;ratioP1;P2;durP2;ratioP2
17207;SDS011;8720;48.488;9.202;2023-02-11T00:01:21;40.78;;;25.35;;
17207;SDS011;8720;48.488;9.202;2023-02-11T00:03:53;37.38;;;24.15;;
17207;SDS011;8720;48.488;9.202;2023-02-11T00:06:21;35.42;;;23.63;;
17207;SDS011;8720;48.488;9.202;2023-02-11T00:08:50;43.40;;;27.90;;
17207;SDS011;8720;48.488;9.202;2023-02-11T00:11:18;39.92;;;25.08;;
17207;SDS011;8720;48.488;9.202;2023-02-11T00:13:49;40.45;;;24.23;;
17207;SDS011;8720;48.488;9.202;2023-02-11T00:16:17;37.22;;;24.15;;
17207;SDS011;8720;48.488;9.202;2023-02-11T00:18:46;39.67;;;23.58;;
17207;SDS011;8720;48.488;9.202;2023-02-11T00:21:16;40.75;;;25.15;;
17207;SDS011;8720;48.488;9.202;2023-02-11T00:23:46;40.95;;;25.98;;
17207;SDS011;8720;48.488;9.202;2023-02-11T00:26:14;38.67;;;24.25;;
17207;SDS011;8720;48.488;9.202;2023-02-11T00:28:47;34.95;;;22.05;;
17207;SDS011;8720;48.488;9.202;2023-02-11T00:31:16;31.40;;;20.95;;
17207;SDS011;8720;48.488;9.202;2023-02-11T00:33:47;34.85;;;18.98;;
17207;SDS011;8720;48.488;9.202;2023-02-11T00:36:17;32.55;;;19.15;;
17207;SDS011;8720;48.488;9.202;2023-02-11T00:38:47;34.25;;;19.98;;
17207;SDS011;8720;48.488;9.202;2023-02-11T00:41:16;31.83;;;18.85;;
17207;SDS011;8720;48.488;9.202;2023-02-11T00:43:44;30.13;;;18.58;;
17207;SDS011;8720;48.488;9.202;2023-02-11T00:46:12;36.47;;;21.23;;
17207;SDS011;8720;48.488;9.202;2023-02-11T00:48:40;32.97;;;20.75;;
17207;SDS011;8720;48.488;9.202;2023-02-11T00:51:08;37.10;;;21.92;;
17207;SDS011;8720;48.488;9.202;2023-02-11T00:53:37;34.72;;;22.52;;
17207;SDS011;8720;48.488;9.202;2023-02-11T00:56:05;36.53;;;22.95;;
17207;SDS011;8720;48.488;9.202;2023-02-11T00:58:33;37.92;;;22.30;;
17207;SDS011;8720;48.488;9.202;2023-02-11T01:01:01;32.58;;;21.52;;
17207;SDS011;8720;48.488;9.202;2023-02-11T01:03:29;37.72;;;23.05;;
17207;SDS011;8720;48.488;9.202;2023-02-11T01:05:57;30.77;;;19.95;;
17207;SDS011;8720;48.488;9.202;2023-02-11T01:08:24;32.88;;;21.02;;
17207;SDS011;8720;48.488;9.202;2023-02-11T01:10:54;30.88;;;19.85;;
17207;SDS011;8720;48.488;9.202;2023-02-11T01:13:23;33.67;;;21.02;;
17207;SDS011;8720;48.488;9.202;2023-02-11T01:15:52;36.15;;;21.42;;
17207;SDS011;8720;48.488;9.202;2023-02-11T01:18:22;34.10;;;20.00;;
17207;SDS011;8720;48.488;9.202;2023-02-11T01:20:51;35.40;;;21.13;;
17207;SDS011;8720;48.488;9.202;2023-02-11T01:23:19;32.92;;;20.13;;
17207;SDS011;8720;48.488;9.202;2023-02-11T01:25:47;34.70;;;20.00;;
17207;SDS011;8720;48.488;9.202;2023-02-11T01:28:16;35.45;;;20.92;;
17207;SDS011;8720;48.488;9.202;2023-02-11T01:30:45;30.80;;;19.83;;
17207;SDS011;8720;48.488;9.202;2023-02-11T01:33:13;33.50;;;20.35;;
17207;SDS011;8720;48.488;9.202;2023-02-11T01:35:40;35.58;;;20.05;;
17207;SDS011;8720;48.488;9.202;2023-02-11T01:38:13;32.97;;;18.85;;
17207;SDS011;8720;48.488;9.202;2023-02-11T01:40:47;33.25;;;19.60;;
17207;SDS011;8720;48.488;9.202;2023-02-11T01:43:18;31.05;;;18.95;;
17207;SDS011;8720;48.488;9.202;2023-02-11T01:45:56;33.22;;;19.85;;
17207;SDS011;8720;48.488;9.202;2023-02-11T01:49:00;29.15;;;17.70;;
17207;SDS011;8720;48.488;9.202;2023-02-11T01:51:33;33.28;;;20.33;;
17207;SDS011;8720;48.488;9.202;2023-02-11T01:54:06;27.38;;;17.48;;
17207;SDS011;8720;48.488;9.202;2023-02-11T01:56:55;33.33;;;20.95;;
17207;SDS011;8720;48.488;9.202;2023-02-11T01:59:47;31.13;;;18.33;;
17207;SDS011;8720;48.488;9.202;2023-02-11T02:02:39;33.13;;;19.80;;
17207;SDS011;8720;48.488;9.202;2023-02-11T02:05:21;28.67;;;18.42;;
17207;SDS011;8720;48.488;9.202;2023-02-11T02:08:01;30.85;;;19.77;;
17207;SDS011;8720;48.488;9.202;2023-02-11T02:10:34;32.50;;;19.00;;
17207;SDS011;8720;48.488;9.202;2023-02-11T02:13:08;35.13;;;21.65;;
17207;SDS011;8720;48.488;9.202;2023-02-11T02:15:38;30.75;;;20.13;;
17207;SDS011;8720;48.488;9.202;2023-02-11T02:18:22;35.50;;;21.35;;
17207;SDS011;8720;48.488;9.202;2023-02-11T02:21:12;34.22;;;20.42;;
17207;SDS011;8720;48.488;9.202;2023-02-11T02:24:20;35.97;;;20.75;;
17207;SDS011;8720;48.488;9.202;2023-02-11T02:27:41;33.17;;;19.75;;
17207;SDS011;8720;48.488;9.202;2023-02-11T02:30:25;33.67;;;21.63;;
17207;SDS011;8720;48.488;9.202;2023-02-11T02:33:24;32.40;;;20.20;;
17207;SDS011;8720;48.488;9.202;2023-02-11T02:36:11;34.80;;;21.27;;
17207;SDS011;8720;48.488;9.202;2023-02-11T02:38:49;36.65;;;21.73;;
17207;SDS011;8720;48.488;9.202;2023-02-11T02:41:25;38.97;;;21.92;;
17207;SDS011;8720;48.488;9.202;2023-02-11T02:43:56;33.88;;;20.48;;
17207;SDS011;8720;48.488;9.202;2023-02-11T02:46:24;29.00;;;19.15;;
17207;SDS011;8720;48.488;9.202;2023-02-11T02:48:55;43.20;;;23.23;;
17207;SDS011;8720;48.488;9.202;2023-02-11T02:51:26;36.75;;;20.25;;
17207;SDS011;8720;48.488;9.202;2023-02-11T02:58:03;34.42;;;19.65;;
17207;SDS011;8720;48.488;9.202;2023-02-11T03:03:40;37.30;;;21.95;;
17207;SDS011;8720;48.488;9.202;2023-02-11T03:06:20;33.78;;;22.00;;
17207;SDS011;8720;48.488;9.202;2023-02-11T03:08:58;41.13;;;22.40;;
17207;SDS011;8720;48.488;9.202;2023-02-11T03:11:32;34.38;;;22.02;;
17207;SDS011;8720;48.488;9.202;2023-02-11T03:14:04;31.85;;;20.95;;
17207;SDS011;8720;48.488;9.202;2023-02-11T03:16:36;37.85;;;21.73;;
17207;SDS011;8720;48.488;9.202;2023-02-11T03:19:05;35.38;;;22.10;;
17207;SDS011;8720;48.488;9.202;2023-02-11T03:21:41;33.63;;;19.17;;
17207;SDS011;8720;48.488;9.202;2023-02-11T03:24:11;31.17;;;21.00;;
17207;SDS011;8720;48.488;9.202;2023-02-11T03:26:46;28.88;;;19.15;;
17207;SDS011;8720;48.488;9.202;2023-02-11T03:29:20;30.85;;;19.05;;
17207;SDS011;8720;48.488;9.202;2023-02-11T03:32:02;32.25;;;19.98;;
17207;SDS011;8720;48.488;9.202;2023-02-11T03:34:41;33.55;;;19.73;;
17207;SDS011;8720;48.488;9.202;2023-02-11T03:37:20;34.55;;;19.45;;
17207;SDS011;8720;48.488;9.202;2023-02-11T03:39:55;33.00;;;20.33;;
17207;SDS011;8720;48.488;9.202;2023-02-11T03:42:31;30.33;;;17.02;;
17207;SDS011;8720;48.488;9.202;2023-02-11T03:45:05;27.30;;;16.70;;
17207;SDS011;8720;48.488;9.202;2023-02-11T03:47:37;30.25;;;18.88;;
17207;SDS011;8720;48.488;9.202;2023-02-11T03:50:11;25.75;;;17.40;;
17207;SDS011;8720;48.488;9.202;2023-02-11T03:52:43;27.67;;;18.35;;
17207;SDS011;8720;48.488;9.202;2023-02-11T03:55:14;28.67;;;17.90;;
17207;SDS011;8720;48.488;9.202;2023-02-11T03:57:46;32.35;;;18.75;;
17207;SDS011;8720;48.488;9.202;2023-02-11T04:00:14;34.10;;;18.92;;
17207;SDS011;8720;48.488;9.202;2023-02-11T04:02:41;32.72;;;19.55;;
17207;SDS011;8720;48.488;9.202;2023-02-11T04:05:13;26.15;;;17.35;;
17207;SDS011;8720;48.488;9.202;2023-02-11T04:07:43;30.73;;;19.08;;
17207;SDS011;8720;48.488;9.202;2023-02-11T04:10:10;31.10;;;19.65;;
17207;SDS011;8720;48.488;9.202;2023-02-11T04:12:38;27.27;;;19.48;;
17207;SDS011;8720;48.488;9.202;2023-02-11T04:15:06;33.00;;;20.27;;
17207;SDS011;8720;48.488;9.202;2023-02-11T04:17:33;31.50;;;19.63;;
17207;SDS011;8720;48.488;9.202;2023-02-11T04:20:02;33.80;;;21.60;;
17207;SDS011;8720;48.488;9.202;2023-02-11T04:22:30;37.15;;;21.33;;
17207;SDS011;8720;48.488;9.202;2023-02-11T04:24:59;33.17;;;20.77;;
17207;SDS011;8720;48.488;9.202;2023-02-11T04:27:26;31.33;;;18.85;;
17207;SDS011;8720;48.488;9.202;2023-02-11T04:29:53;34.13;;;21.10;;
17207;SDS011;8720;48.488;9.202;2023-02-11T04:32:21;36.75;;;20.60;;
17207;SDS011;8720;48.488;9.202;2023-02-11T04:34:48;32.40;;;20.70;;
17207;SDS011;8720;48.488;9.202;2023-02-11T04:37:16;29.20;;;19.85;;
17207;SDS011;8720;48.488;9.202;2023-02-11T04:39:43;35.13;;;20.35;;
17207;SDS011;8720;48.488;9.202;2023-02-11T04:42:12;34.42;;;21.90;;
17207;SDS011;8720;48.488;9.202;2023-02-11T04:44:39;29.73;;;20.02;;
17207;SDS011;8720;48.488;9.202;2023-02-11T04:47:06;34.47;;;22.77;;
17207;SDS011;8720;48.488;9.202;2023-02-11T04:49:34;41.08;;;23.75;;
17207;SDS011;8720;48.488;9.202;2023-02-11T04:52:01;39.30;;;24.10;;
17207;SDS011;8720;48.488;9.202;2023-02-11T04:54:28;43.45;;;23.75;;
17207;SDS011;8720;48.488;9.202;2023-02-11T04:56:55;33.55;;;21.05;;
17207;SDS011;8720;48.488;9.202;2023-02-11T04:59:24;33.17;;;21.33;;
17207;SDS011;8720;48.488;9.202;2023-02-11T05:01:51;35.40;;;22.13;;
17207;SDS011;8720;48.488;9.202;2023-02-11T05:04:19;35.83;;;22.55;;
17207;SDS011;8720;48.488;9.202;2023-02-11T05:06:46;35.33;;;21.35;;
17207;SDS011;8720;48.488;9.202;2023-02-11T05:09:13;35.60;;;22.45;;
17207;SDS011;8720;48.488;9.202;2023-02-11T05:11:41;36.50;;;21.55;;
17207;SDS011;8720;48.488;9.202;2023-02-11T05:14:09;35.70;;;21.83;;
17207;SDS011;8720;48.488;9.202;2023-02-11T05:16:37;37.15;;;22.50;;
17207;SDS011;8720;48.488;9.202;2023-02-11T05:19:05;35.90;;;23.25;;
17207;SDS011;8720;48.488;9.202;2023-02-11T05:21:32;34.88;;;22.75;;
17207;SDS011;8720;48.488;9.202;2023-02-11T05:23:59;34.15;;;23.00;;
17207;SDS011;8720;48.488;9.202;2023-02-11T05:26:26;29.77;;;19.73;;
17207;SDS011;8720;48.488;9.202;2023-02-11T05:28:54;36.08;;;22.42;;
17207;SDS011;8720;48.488;9.202;2023-02-11T05:31:21;36.58;;;21.98;;
17207;SDS011;8720;48.488;9.202;2023-02-11T05:33:50;36.45;;;22.95;;
17207;SDS011;8720;48.488;9.202;2023-02-11T05:36:17;35.67;;;23.55;;
17207;SDS011;8720;48.488;9.202;2023-02-11T05:38:45;40.42;;;22.08;;
17207;SDS011;8720;48.488;9.202;2023-02-11T05:41:12;33.50;;;21.90;;
17207;SDS011;8720;48.488;9.202;2023-02-11T05:43:40;34.65;;;22.67;;
17207;SDS011;8720;48.488;9.202;2023-02-11T05:46:07;40.45;;;22.63;;
17207;SDS011;8720;48.488;9.202;2023-02-11T05:48:34;40.00;;;20.48;;
17207;SDS011;8720;48.488;9.202;2023-02-11T05:51:03;31.50;;;20.67;;
17207;SDS011;8720;48.488;9.202;2023-02-11T05:53:31;30.45;;;19.85;;
17207;SDS011;8720;48.488;9.202;2023-02-11T05:55:58;34.33;;;21.27;;
17207;SDS011;8720;48.488;9.202;2023-02-11T05:58:25;34.38;;;21.10;;
17207;SDS011;8720;48.488;9.202;2023-02-11T06:00:53;34.22;;;21.83;;
17207;SDS011;8720;48.488;9.202;2023-02-11T06:03:20;31.23;;;20.15;;
17207;SDS011;8720;48.488;9.202;2023-02-11T06:05:47;35.88;;;22.88;;
17207;SDS011;8720;48.488;9.202;2023-02-11T06:08:16;34.53;;;21.75;;
17207;SDS011;8720;48.488;9.202;2023-02-11T06:10:43;35.25;;;22.08;;
17207;SDS011;8720;48.488;9.202;2023-02-11T06:13:11;34.03;;;21.02;;
17207;SDS011;8720;48.488;9.202;2023-02-11T06:15:38;32.78;;;21.58;;
17207;SDS011;8720;48.488;9.202;2023-02-11T06:18:05;36.85;;;23.30;;
17207;SDS011;8720;48.488;9.202;2023-02-11T06:20:33;38.58;;;22.73;;
17207;SDS011;8720;48.488;9.202;2023-02-11T06:23:01;33.67;;;21.80;;
17207;SDS011;8720;48.488;9.202;2023-02-11T06:25:30;35.95;;;22.13;;
17207;SDS011;8720;48.488;9.202;2023-02-11T06:27:57;35.70;;;22.77;;
17207;SDS011;8720;48.488;9.202;2023-02-11T06:30:24;35.70;;;22.90;;
17207;SDS011;8720;48.488;9.202;2023-02-11T06:32:52;33.80;;;22.65;;
17207;SDS011;8720;48.488;9.202;2023-02-11T06:35:19;33.83;;;23.55;;
17207;SDS011;8720;48.488;9.202;2023-02-11T06:37:46;36.63;;;24.25;;
17207;SDS011;8720;48.488;9.202;2023-02-11T06:40:14;31.65;;;22.15;;
17207;SDS011;8720;48.488;9.202;2023-02-11T06:42:42;36.60;;;22.80;;
17207;SDS011;8720;48.488;9.202;2023-02-11T06:45:10;33.85;;;22.63;;
17207;SDS011;8720;48.488;9.202;2023-02-11T06:47:38;38.25;;;23.42;;
17207;SDS011;8720;48.488;9.202;2023-02-11T06:50:07;37.33;;;22.83;;
17207;SDS011;8720;48.488;9.202;2023-02-11T06:52:38;37.33;;;24.25;;
17207;SDS011;8720;48.488;9.202;2023-02-11T06:55:05;39.60;;;25.02;;
17207;SDS011;8720;48.488;9.202;2023-02-11T06:57:33;31.88;;;20.73;;
17207;SDS011;8720;48.488;9.202;2023-02-11T07:00:02;39.72;;;24.35;;
17207;SDS011;8720;48.488;9.202;2023-02-11T07:02:30;36.70;;;24.55;;
17207;SDS011;8720;48.488;9.202;2023-02-11T07:04:57;39.55;;;24.42;;
17207;SDS011;8720;48.488;9.202;2023-02-11T07:07:24;36.53;;;24.50;;
17207;SDS011;8720;48.488;9.202;2023-02-11T07:09:53;34.17;;;23.00;;
17207;SDS011;8720;48.488;9.202;2023-02-11T07:12:20;37.90;;;23.83;;
17207;SDS011;8720;48.488;9.202;2023-02-11T07:14:47;33.83;;;22.13;;
17207;SDS011;8720;48.488;9.202;2023-02-11T07:17:16;38.67;;;24.58;;
17207;SDS011;8720;48.488;9.202;2023-02-11T07:19:43;35.03;;;23.55;;
17207;SDS011;8720;48.488;9.202;2023-02-11T07:22:11;37.78;;;24.45;;
17207;SDS011;8720;48.488;9.202;2023-02-11T07:24:38;34.20;;;23.27;;
17207;SDS011;8720;48.488;9.202;2023-02-11T07:27:05;34.30;;;23.00;;
17207;SDS011;8720;48.488;9.202;2023-02-11T07:29:33;33.40;;;22.98;;
17207;SDS011;8720;48.488;9.202;2023-02-11T07:32:00;34.40;;;23.30;;
17207;SDS011;8720;48.488;9.202;2023-02-11T07:34:28;38.40;;;23.73;;
17207;SDS011;8720;48.488;9.202;2023-02-11T07:36:56;36.70;;;23.03;;
17207;SDS011;8720;48.488;9.202;2023-02-11T07:39:23;36.80;;;24.50;;
17207;SDS011;8720;48.488;9.202;2023-02-11T07:41:51;41.42;;;25.30;;
17207;SDS011;8720;48.488;9.202;2023-02-11T07:44:19;46.17;;;26.73;;
17207;SDS011;8720;48.488;9.202;2023-02-11T07:46:46;36.58;;;25.70;;
17207;SDS011;8720;48.488;9.202;2023-02-11T07:49:14;35.27;;;24.60;;
17207;SDS011;8720;48.488;9.202;2023-02-11T07:51:43;38.57;;;24.63;;
17207;SDS011;8720;48.488;9.202;2023-02-11T07:54:11;38.97;;;26.40;;
17207;SDS011;8720;48.488;9.202;2023-02-11T07:56:38;33.30;;;24.10;;
17207;SDS011;8720;48.488;9.202;2023-02-11T07:59:06;32.40;;;23.33;;
17207;SDS011;8720;48.488;9.202;2023-02-11T08:01:33;36.30;;;25.37;;
17207;SDS011;8720;48.488;9.202;2023-02-11T08:04:01;29.80;;;22.60;;
17207;SDS011;8720;48.488;9.202;2023-02-11T08:06:30;32.23;;;24.13;;
17207;SDS011;8720;48.488;9.202;2023-02-11T08:09:03;35.10;;;24.40;;
17207;SDS011;8720;48.488;9.202;2023-02-11T08:11:33;32.50;;;23.43;;
17207;SDS011;8720;48.488;9.202;2023-02-11T08:14:00;27.50;;;21.87;;
17207;SDS011;8720;48.488;9.202;2023-02-11T08:16:29;31.67;;;22.20;;
17207;SDS011;8720;48.488;9.202;2023-02-11T08:18:59;32.63;;;21.70;;
17207;SDS011;8720;48.488;9.202;2023-02-11T08:21:29;30.43;;;21.57;;
17207;SDS011;8720;48.488;9.202;2023-02-11T08:23:57;31.93;;;22.20;;
17207;SDS011;8720;48.488;9.202;2023-02-11T08:26:29;31.67;;;22.27;;
17207;SDS011;8720;48.488;9.202;2023-02-11T08:28:59;32.00;;;22.60;;
17207;SDS011;8720;48.488;9.202;2023-02-11T08:31:32;33.20;;;22.43;;
17207;SDS011;8720;48.488;9.202;2023-02-11T08:34:02;37.07;;;22.90;;
17207;SDS011;8720;48.488;9.202;2023-02-11T08:36:31;34.50;;;23.90;;
17207;SDS011;8720;48.488;9.202;2023-02-11T08:39:02;29.47;;;22.43;;
17207;SDS011;8720;48.488;9.202;2023-02-11T08:41:33;34.77;;;24.23;;
17207;SDS011;8720;48.488;9.202;2023-02-11T08:44:01;31.73;;;23.40;;
17207;SDS011;8720;48.488;9.202;2023-02-11T08:46:29;31.77;;;23.90;;
17207;SDS011;8720;48.488;9.202;2023-02-11T08:48:56;31.33;;;22.30;;
17207;SDS011;8720;48.488;9.202;2023-02-11T08:51:24;29.50;;;22.23;;
17207;SDS011;8720;48.488;9.202;2023-02-11T08:53:54;27.13;;;21.20;;
17207;SDS011;8720;48.488;9.202;2023-02-11T08:56:22;28.50;;;22.50;;
17207;SDS011;8720;48.488;9.202;2023-02-11T08:58:52;31.03;;;23.23;;
17207;SDS011;8720;48.488;9.202;2023-02-11T09:01:21;28.30;;;22.30;;
17207;SDS011;8720;48.488;9.202;2023-02-11T09:03:54;31.30;;;22.77;;
17207;SDS011;8720;48.488;9.202;2023-02-11T09:06:23;33.13;;;22.83;;
17207;SDS011;8720;48.488;9.202;2023-02-11T09:08:52;32.60;;;24.50;;
17207;SDS011;8720;48.488;9.202;2023-02-11T09:11:24;30.53;;;23.00;;
17207;SDS011;8720;48.488;9.202;2023-02-11T09:13:56;29.70;;;22.00;;
17207;SDS011;8720;48.488;9.202;2023-02-11T09:16:24;28.37;;;22.37;;
17207;SDS011;8720;48.488;9.202;2023-02-11T09:21:28;31.50;;;21.47;;
17207;SDS011;8720;48.488;9.202;2023-02-11T09:23:56;24.83;;;21.07;;
17207;SDS011;8720;48.488;9.202;2023-02-11T09:26:24;29.83;;;24.50;;
17207;SDS011;8720;48.488;9.202;2023-02-11T09:28:54;30.90;;;22.70;;
17207;SDS011;8720;48.488;9.202;2023-02-11T09:31:23;32.60;;;22.70;;
17207;SDS011;8720;48.488;9.202;2023-02-11T09:33:54;32.23;;;23.10;;
17207;SDS011;8720;48.488;9.202;2023-02-11T09:36:23;29.40;;;21.87;;
17207;SDS011;8720;48.488;9.202;2023-02-11T09:38:54;27.90;;;21.93;;
17207;SDS011;8720;48.488;9.202;2023-02-11T09:41:39;28.87;;;21.90;;
17207;SDS011;8720;48.488;9.202;2023-02-11T09:44:29;27.13;;;20.63;;
17207;SDS011;8720;48.488;9.202;2023-02-11T09:46:59;25.67;;;20.83;;
17207;SDS011;8720;48.488;9.202;2023-02-11T09:49:32;27.87;;;20.43;;
17207;SDS011;8720;48.488;9.202;2023-02-11T09:52:07;29.27;;;19.77;;
17207;SDS011;8720;48.488;9.202;2023-02-11T09:54:51;27.30;;;21.60;;
17207;SDS011;8720;48.488;9.202;2023-02-11T09:57:23;28.03;;;21.13;;
17207;SDS011;8720;48.488;9.202;2023-02-11T09:59:59;26.97;;;20.97;;
17207;SDS011;8720;48.488;9.202;2023-02-11T10:02:40;31.00;;;21.13;;
17207;SDS011;8720;48.488;9.202;2023-02-11T10:06:00;27.80;;;19.77;;
17207;SDS011;8720;48.488;9.202;2023-02-11T10:08:50;24.77;;;19.07;;
17207;SDS011;8720;48.488;9.202;2023-02-11T10:11:32;25.03;;;17.67;;
17207;SDS011;8720;48.488;9.202;2023-02-11T10:14:18;21.73;;;17.33;;
17207;SDS011;8720;48.488;9.202;2023-02-11T10:17:11;28.63;;;19.60;;
17207;SDS011;8720;48.488;9.202;2023-02-11T10:19:56;25.97;;;18.37;;
17207;SDS011;8720;48.488;9.202;2023-02-11T10:22:42;26.43;;;18.20;;
17207;SDS011;8720;48.488;9.202;2023-02-11T10:25:19;22.40;;;17.33;;
17207;SDS011;8720;48.488;9.202;2023-02-11T10:27:49;22.77;;;17.60;;
17207;SDS011;8720;48.488;9.202;2023-02-11T10:30:22;22.33;;;17.00;;
17207;SDS011;8720;48.488;9.202;2023-02-11T10:32:59;22.93;;;18.40;;
17207;SDS011;8720;48.488;9.202;2023-02-11T10:35:36;24.30;;;19.43;;
17207;SDS011;8720;48.488;9.202;2023-02-11T10:38:04;24.10;;;19.57;;
17207;SDS011;8720;48.488;9.202;2023-02-11T10:40:31;24.03;;;18.43;;
17207;SDS011;8720;48.488;9.202;2023-02-11T10:42:59;26.13;;;19.70;;
17207;SDS011;8720;48.488;9.202;2023-02-11T10:45:32;23.87;;;19.03;;
17207;SDS011;8720;48.488;9.202;2023-02-11T10:48:34;26.33;;;19.37;;
17207;SDS011;8720;48.488;9.202;2023-02-11T10:51:13;26.27;;;18.83;;
17207;SDS011;8720;48.488;9.202;2023-02-11T10:53:44;29.97;;;19.70;;
17207;SDS011;8720;48.488;9.202;2023-02-11T10:56:18;23.23;;;17.30;;
17207;SDS011;8720;48.488;9.202;2023-02-11T10:58:54;21.90;;;16.50;;
17207;SDS011;8720;48.488;9.202;2023-02-11T11:01:38;19.63;;;16.47;;
17207;SDS011;8720;48.488;9.202;2023-02-11T11:04:24;22.10;;;15.90;;
17207;SDS011;8720;48.488;9.202;2023-02-11T11:07:15;20.53;;;16.17;;
17207;SDS011;8720;48.488;9.202;2023-02-11T11:09:48;24.93;;;18.03;;
17207;SDS011;8720;48.488;9.202;2023-02-11T11:12:33;23.80;;;18.00;;
17207;SDS011;8720;48.488;9.202;2023-02-11T11:15:13;24.20;;;19.60;;
17207;SDS011;8720;48.488;9.202;2023-02-11T11:17:46;26.73;;;19.40;;
17207;SDS011;8720;48.488;9.202;2023-02-11T11:20:17;27.83;;;20.90;;
17207;SDS011;8720;48.488;9.202;2023-02-11T11:22:50;27.83;;;20.83;;
17207;SDS011;8720;48.488;9.202;2023-02-11T11:25:32;25.30;;;18.27;;
17207;SDS011;8720;48.488;9.202;2023-02-11T11:28:04;27.53;;;20.87;;
17207;SDS011;8720;48.488;9.202;2023-02-11T11:30:43;26.47;;;19.60;;
17207;SDS011;8720;48.488;9.202;2023-02-11T11:33:14;24.23;;;19.00;;
17207;SDS011;8720;48.488;9.202;2023-02-11T11:35:56;24.07;;;18.07;;
17207;SDS011;8720;48.488;9.202;2023-02-11T11:38:28;23.10;;;17.40;;
17207;SDS011;8720;48.488;9.202;2023-02-11T11:41:17;22.40;;;17.10;;
17207;SDS011;8720;48.488;9.202;2023-02-11T11:43:58;25.40;;;16.40;;
17207;SDS011;8720;48.488;9.202;2023-02-11T11:46:30;20.70;;;16.53;;
17207;SDS011;8720;48.488;9.202;2023-02-11T11:49:06;21.23;;;16.70;;
17207;SDS011;8720;48.488;9.202;2023-02-11T11:51:53;18.70;;;16.00;;
17207;SDS011;8720;48.488;9.202;2023-02-11T11:54:41;23.87;;;15.97;;
17207;SDS011;8720;48.488;9.202;2023-02-11T11:57:22;19.73;;;15.10;;
17207;SDS011;8720;48.488;9.202;2023-02-11T11:59:54;20.87;;;15.57;;
17207;SDS011;8720;48.488;9.202;2023-02-11T12:02:44;21.73;;;15.80;;
17207;SDS011;8720;48.488;9.202;2023-02-11T12:05:35;19.83;;;15.00;;
17207;SDS011;8720;48.488;9.202;2023-02-11T12:08:15;25.90;;;15.70;;
17207;SDS011;8720;48.488;9.202;2023-02-11T12:10:57;18.80;;;14.60;;
17207;SDS011;8720;48.488;9.202;2023-02-11T12:13:39;17.50;;;15.23;;
17207;SDS011;8720;48.488;9.202;2023-02-11T12:16:32;16.73;;;14.93;;
17207;SDS011;8720;48.488;9.202;2023-02-11T12:19:31;17.37;;;15.57;;
17207;SDS011;8720;48.488;9.202;2023-02-11T12:22:39;16.97;;;15.17;;
17207;SDS011;8720;48.488;9.202;2023-02-11T12:25:24;18.90;;;14.50;;
17207;SDS011;8720;48.488;9.202;2023-02-11T12:27:56;22.80;;;14.27;;
17207;SDS011;8720;48.488;9.202;2023-02-11T12:30:45;15.80;;;13.30;;
17207;SDS011;8720;48.488;9.202;2023-02-11T12:33:59;20.47;;;14.90;;
17207;SDS011;8720;48.488;9.202;2023-02-11T12:36:54;17.10;;;14.60;;
17207;SDS011;8720;48.488;9.202;2023-02-11T12:39:39;15.43;;;13.50;;
17207;SDS011;8720;48.488;9.202;2023-02-11T12:42:18;15.90;;;13.67;;
17207;SDS011;8720;48.488;9.202;2023-02-11T12:45:24;20.97;;;14.50;;
17207;SDS011;8720;48.488;9.202;2023-02-11T12:48:12;19.50;;;13.70;;
17207;SDS011;8720;48.488;9.202;2023-02-11T12:50:56;15.40;;;13.33;;
17207;SDS011;8720;48.488;9.202;2023-02-11T12:53:44;15.13;;;12.80;;
17207;SDS011;8720;48.488;9.202;2023-02-11T12:56:33;16.50;;;13.20;;
17207;SDS011;8720;48.488;9.202;2023-02-11T12:59:11;14.20;;;12.70;;
17207;SDS011;8720;48.488;9.202;2023-02-11T13:01:46;15.63;;;12.70;;
17207;SDS011;8720;48.488;9.202;2023-02-11T13:04:19;14.40;;;11.83;;
17207;SDS011;8720;48.488;9.202;2023-02-11T13:06:54;16.80;;;12.33;;
17207;SDS011;8720;48.488;9.202;2023-02-11T13:09:28;15.40;;;12.53;;
17207;SDS011;8720;48.488;9.202;2023-02-11T13:12:04;15.50;;;11.37;;
17207;SDS011;8720;48.488;9.202;2023-02-11T13:14:53;15.00;;;11.40;;
17207;SDS011;8720;48.488;9.202;2023-02-11T13:17:29;11.80;;;10.30;;
17207;SDS011;8720;48.488;9.202;2023-02-11T13:20:11;13.07;;;10.67;;
17207;SDS011;8720;48.488;9.202;2023-02-11T13:22:53;12.43;;;11.07;;
17207;SDS011;8720;48.488;9.202;2023-02-11T13:25:33;12.20;;;10.50;;
17207;SDS011;8720;48.488;9.202;2023-02-11T13:28:14;12.47;;;10.00;;
17207;SDS011;8720;48.488;9.202;2023-02-11T13:31:08;14.60;;;10.20;;
17207;SDS011;8720;48.488;9.202;2023-02-11T13:33:40;13.03;;;9.60;;
17207;SDS011;8720;48.488;9.202;2023-02-11T13:36:14;13.40;;;9.60;;
17207;SDS011;8720;48.488;9.202;2023-02-11T13:38:52;15.80;;;13.00;;
17207;SDS011;8720;48.488;9.202;2023-02-11T13:41:27;10.57;;;9.50;;
17207;SDS011;8720;48.488;9.202;2023-02-11T13:44:02;10.67;;;9.60;;
17207;SDS011;8720;48.488;9.202;2023-02-11T13:46:51;10.43;;;9.33;;
17207;SDS011;8720;48.488;9.202;2023-02-11T13:49:29;10.10;;;8.67;;
17207;SDS011;8720;48.488;9.202;2023-02-11T13:52:05;9.80;;;8.37;;
17207;SDS011;8720;48.488;9.202;2023-02-11T13:54:50;10.03;;;8.40;;
17207;SDS011;8720;48.488;9.202;2023-02-11T13:57:23;9.67;;;8.27;;
17207;SDS011;8720;48.488;9.202;2023-02-11T13:59:58;11.10;;;9.27;;
17207;SDS011;8720;48.488;9.202;2023-02-11T14:02:34;10.10;;;7.90;;
17207;SDS011;8720;48.488;9.202;2023-02-11T14:05:32;10.07;;;7.13;;
17207;SDS011;8720;48.488;9.202;2023-02-11T14:08:21;8.73;;;6.97;;
17207;SDS011;8720;48.488;9.202;2023-02-11T14:14:19;6.37;;;5.53;;
17207;SDS011;8720;48.488;9.202;2023-02-11T14:19:56;9.50;;;6.87;;
17207;SDS011;8720;48.488;9.202;2023-02-11T14:22:25;7.30;;;6.60;;
17207;SDS011;8720;48.488;9.202;2023-02-11T14:24:57;8.20;;;7.30;;
17207;SDS011;8720;48.488;9.202;2023-02-11T14:27:27;8.37;;;6.60;;
17207;SDS011;8720;48.488;9.202;2023-02-11T14:39:39;8.03;;;6.70;;
17207;SDS011;8720;48.488;9.202;2023-02-11T14:42:24;9.27;;;7.10;;
17207;SDS011;8720;48.488;9.202;2023-02-11T14:44:55;8.57;;;7.70;;
17207;SDS011;8720;48.488;9.202;2023-02-11T14:47:32;7.53;;;6.80;;
17207;SDS011;8720;48.488;9.202;2023-02-11T14:50:13;7.73;;;6.60;;
17207;SDS011;8720;48.488;9.202;2023-02-11T14:52:48;9.50;;;6.50;;
17207;SDS011;8720;48.488;9.202;2023-02-11T14:55:21;7.80;;;6.63;;
17207;SDS011;8720;48.488;9.202;2023-02-11T14:58:04;11.70;;;7.43;;
17207;SDS011;8720;48.488;9.202;2023-02-11T15:00:50;9.30;;;6.77;;
17207;SDS011;8720;48.488;9.202;2023-02-11T15:03:27;9.60;;;7.60;;
17207;SDS011;8720;48.488;9.202;2023-02-11T15:06:00;9.17;;;7.60;;
17207;SDS011;8720;48.488;9.202;2023-02-11T15:08:35;9.03;;;8.07;;
17207;SDS011;8720;48.488;9.202;2023-02-11T15:11:09;12.10;;;9.97;;
17207;SDS011;8720;48.488;9.202;2023-02-11T15:13:41;14.20;;;10.80;;
17207;SDS011;8720;48.488;9.202;2023-02-11T15:16:11;13.73;;;11.70;;
17207;SDS011;8720;48.488;9.202;2023-02-11T15:18:44;13.83;;;10.40;;
17207;SDS011;8720;48.488;9.202;2023-02-11T15:21:19;14.63;;;11.90;;
17207;SDS011;8720;48.488;9.202;2023-02-11T15:23:56;15.37;;;11.23;;
17207;SDS011;8720;48.488;9.202;2023-02-11T15:26:26;11.70;;;10.10;;
17207;SDS011;8720;48.488;9.202;2023-02-11T15:28:55;12.17;;;10.80;;
17207;SDS011;8720;48.488;9.202;2023-02-11T15:31:23;14.83;;;11.97;;
17207;SDS011;8720;48.488;9.202;2023-02-11T15:33:52;16.53;;;12.50;;
17207;SDS011;8720;48.488;9.202;2023-02-11T15:36:21;16.43;;;12.93;;
17207;SDS011;8720;48.488;9.202;2023-02-11T15:41:45;16.57;;;12.83;;
17207;SDS011;8720;48.488;9.202;2023-02-11T15:44:25;17.80;;;13.63;;